Time;durP1;ratioP1;P1;durP2;ratioP2;P2;SDS_P1;SDS_P2;PMS_P1;PMS_P2;Temp;Humidity;BMP_temperature;BMP_pressure;BME280_temperature;BME280_humidity;BME280_pressure;Samples;Min_cycle;Max_cycle;Signal;HPM_P1;HPM_P2
2022/04/12 00:00:30;;;;;;;24.38;12.73;;;12.50;74.70;;;;;;5015052;28;20026;-79
2022/04/12 00:02:56;;;;;;;17.67;10.85;;;12.40;75.00;;;;;;5015150;28;20030;-79
2022/04/12 00:05:22;;;;;;;21.58;10.20;;;12.40;74.80;;;;;;5014814;28;20529;-79
2022/04/12 00:07:48;;;;;;;13.98;9.95;;;12.40;74.80;;;;;;5015217;28;20026;-79
2022/04/12 00:10:15;;;;;;;17.92;8.98;;;12.40;75.30;;;;;;5015029;28;20030;-78
2022/04/12 00:12:42;;;;;;;17.60;8.95;;;12.40;75.10;;;;;;5013807;28;20131;-80
2022/04/12 00:15:10;;;;;;;16.25;8.65;;;12.30;75.10;;;;;;5015228;28;20076;-79
2022/04/12 00:20:26;;;;;;;14.85;8.13;;;12.20;75.80;;;;;;5014955;28;20091;-79
2022/04/12 00:22:57;;;;;;;16.27;7.75;;;12.20;75.40;;;;;;5014708;28;20030;-78
2022/04/12 00:25:23;;;;;;;14.60;7.82;;;12.20;75.40;;;;;;5014956;28;20021;-79
2022/04/12 00:27:52;;;;;;;16.50;7.97;;;12.20;75.90;;;;;;5014493;28;20022;-80
2022/04/12 00:30:21;;;;;;;16.55;7.60;;;12.20;75.70;;;;;;5014726;28;20502;-79
2022/04/12 00:32:47;;;;;;;10.85;6.72;;;12.10;75.80;;;;;;5014641;28;20380;-78
2022/04/12 00:35:13;;;;;;;13.18;6.97;;;12.10;75.30;;;;;;5013276;28;20429;-77
2022/04/12 00:37:39;;;;;;;15.68;7.15;;;12.10;75.10;;;;;;5014565;28;20061;-78
2022/04/12 00:40:05;;;;;;;15.57;7.35;;;12.10;75.20;;;;;;5014452;28;20545;-79
2022/04/12 00:42:32;;;;;;;14.15;7.07;;;12.10;75.50;;;;;;5014352;28;20475;-79
2022/04/12 00:44:58;;;;;;;14.18;7.15;;;12.10;75.80;;;;;;5013158;28;20025;-79
2022/04/12 00:47:24;;;;;;;14.88;6.80;;;12.00;75.50;;;;;;5014413;28;20415;-79
2022/04/12 00:49:50;;;;;;;13.65;7.00;;;12.00;75.30;;;;;;5016416;28;20395;-78
2022/04/12 00:52:16;;;;;;;10.68;6.55;;;11.90;75.30;;;;;;5018842;28;20068;-79
2022/04/12 00:54:44;;;;;;;11.90;6.75;;;11.90;75.40;;;;;;5016357;28;20030;-79
2022/04/12 00:57:12;;;;;;;11.40;5.85;;;11.80;75.40;;;;;;5014308;28;20036;-80
2022/04/12 00:59:38;;;;;;;16.40;5.32;;;11.70;75.70;;;;;;5014345;28;20030;-78
2022/04/12 01:02:05;;;;;;;11.05;5.88;;;11.70;75.80;;;;;;5012891;28;20038;-79
2022/04/12 01:04:31;;;;;;;11.00;5.25;;;11.70;75.70;;;;;;5012373;28;20030;-79
2022/04/12 01:06:57;;;;;;;10.80;4.85;;;11.60;75.50;;;;;;5014007;28;20068;-79
2022/04/12 01:09:26;;;;;;;10.80;5.07;;;11.70;75.30;;;;;;5014226;28;20034;-78
2022/04/12 01:11:55;;;;;;;9.48;4.75;;;11.50;75.10;;;;;;5014139;28;20076;-78
2022/04/12 01:14:25;;;;;;;9.50;4.65;;;11.50;75.60;;;;;;5014157;28;20104;-79
2022/04/12 01:16:51;;;;;;;11.13;5.03;;;11.40;75.30;;;;;;5014122;28;20026;-78
2022/04/12 01:19:18;;;;;;;10.48;4.88;;;11.40;74.90;;;;;;5013905;28;20029;-79
2022/04/12 01:21:50;;;;;;;10.70;4.85;;;11.20;75.00;;;;;;5012806;28;20029;-79
2022/04/12 01:24:16;;;;;;;10.80;5.03;;;11.20;75.40;;;;;;5013776;28;20490;-79
2022/04/12 01:26:42;;;;;;;9.27;4.80;;;11.20;75.50;;;;;;5013799;28;20049;-79
2022/04/12 01:29:07;;;;;;;11.68;5.47;;;11.10;75.20;;;;;;5013611;28;20105;-79
2022/04/12 01:31:35;;;;;;;10.05;5.32;;;11.10;75.60;;;;;;5014133;28;20045;-78
2022/04/12 01:34:00;;;;;;;13.43;4.80;;;11.10;75.60;;;;;;5013342;28;20018;-80
2022/04/12 01:36:26;;;;;;;12.88;5.03;;;11.10;75.30;;;;;;5013626;28;20108;-78
2022/04/12 01:38:52;;;;;;;9.93;4.43;;;11.20;75.30;;;;;;5013900;28;20022;-78
2022/04/12 01:41:17;;;;;;;8.60;4.50;;;11.10;75.10;;;;;;5013655;28;20030;-78
2022/04/12 01:43:43;;;;;;;13.38;4.63;;;11.20;75.20;;;;;;5013403;28;20369;-78
2022/04/12 01:46:09;;;;;;;8.57;4.90;;;11.20;74.90;;;;;;5013402;28;20046;-79
2022/04/12 01:48:35;;;;;;;10.65;4.68;;;11.20;74.70;;;;;;5013648;28;20033;-78
2022/04/12 01:51:00;;;;;;;10.88;4.45;;;11.20;74.70;;;;;;5013596;28;20026;-77
2022/04/12 01:53:26;;;;;;;8.88;4.25;;;11.10;74.10;;;;;;5013402;28;20045;-78
2022/04/12 01:55:52;;;;;;;8.75;4.88;;;11.10;74.30;;;;;;5013417;28;20440;-78
2022/04/12 01:58:17;;;;;;;11.52;5.22;;;11.10;74.50;;;;;;5013087;28;20018;-77
2022/04/12 02:00:43;;;;;;;12.07;4.75;;;11.10;75.00;;;;;;5013244;28;20057;-79
2022/04/12 02:03:09;;;;;;;9.50;5.28;;;11.10;74.90;;;;;;5013393;28;20446;-79
2022/04/12 02:05:35;;;;;;;12.48;6.00;;;11.10;74.20;;;;;;5012116;28;20033;-79
2022/04/12 02:08:01;;;;;;;13.65;6.72;;;11.00;74.30;;;;;;5013467;28;20026;-78
2022/04/12 02:10:27;;;;;;;13.57;7.63;;;11.00;74.40;;;;;;5013250;28;20065;-78
2022/04/12 02:12:53;;;;;;;11.07;6.93;;;10.90;74.30;;;;;;5013201;28;20057;-78
2022/04/12 02:15:19;;;;;;;16.58;7.28;;;10.90;74.20;;;;;;5013310;28;20030;-78
2022/04/12 02:17:44;;;;;;;11.35;6.30;;;10.90;74.20;;;;;;5015447;28;20386;-79
2022/04/12 02:20:10;;;;;;;13.95;6.25;;;10.90;74.30;;;;;;5017359;28;20522;-78
2022/04/12 02:22:37;;;;;;;14.25;6.30;;;10.90;74.30;;;;;;5017196;28;20037;-78
2022/04/12 02:25:05;;;;;;;13.18;6.55;;;10.80;74.10;;;;;;5017167;28;20534;-79
2022/04/12 02:27:31;;;;;;;11.25;5.93;;;10.80;74.70;;;;;;5016939;28;20022;-78
2022/04/12 02:29:58;;;;;;;11.45;6.47;;;10.80;74.70;;;;;;5016966;28;20061;-78
2022/04/12 02:32:24;;;;;;;10.05;5.35;;;10.80;74.70;;;;;;5017153;28;20045;-79
2022/04/12 02:34:50;;;;;;;11.13;5.78;;;10.80;74.70;;;;;;5016766;28;20065;-78
2022/04/12 02:37:15;;;;;;;11.50;5.88;;;10.80;74.70;;;;;;5016810;28;20528;-78
2022/04/12 02:39:41;;;;;;;12.15;5.90;;;10.80;75.00;;;;;;5017117;28;20026;-78
2022/04/12 02:42:07;;;;;;;10.65;5.32;;;10.80;75.00;;;;;;5016812;28;20034;-77
2022/04/12 02:44:33;;;;;;;11.68;5.60;;;10.80;74.80;;;;;;5016850;28;20030;-79
2022/04/12 02:46:58;;;;;;;10.15;5.65;;;10.80;74.90;;;;;;5016504;28;20133;-77
2022/04/12 02:49:24;;;;;;;10.40;5.82;;;10.70;75.30;;;;;;5016856;28;20030;-78
2022/04/12 02:51:51;;;;;;;10.65;5.55;;;10.70;75.10;;;;;;5016838;28;20029;-79
2022/04/12 02:54:17;;;;;;;11.65;5.72;;;10.70;75.70;;;;;;5016560;28;20038;-78
2022/04/12 02:56:43;;;;;;;11.77;5.82;;;10.70;75.50;;;;;;5016631;28;20098;-78
2022/04/12 02:59:08;;;;;;;9.93;5.40;;;10.70;75.80;;;;;;5017111;28;20103;-76
2022/04/12 03:01:34;;;;;;;9.57;5.03;;;10.70;75.60;;;;;;5034509;28;20144;-77
2022/04/12 03:04:00;;;;;;;8.77;5.15;;;10.60;75.10;;;;;;5035089;28;20037;-77
2022/04/12 03:06:26;;;;;;;9.77;4.93;;;10.60;75.10;;;;;;5035397;28;20022;-78
2022/04/12 03:08:52;;;;;;;10.98;5.18;;;10.50;74.90;;;;;;5024647;28;20586;-78
2022/04/12 03:11:17;;;;;;;9.80;4.38;;;10.50;74.80;;;;;;5016647;28;20072;-79
2022/04/12 03:13:43;;;;;;;10.88;4.93;;;10.50;74.80;;;;;;5015214;28;20100;-77
2022/04/12 03:16:09;;;;;;;8.88;4.60;;;10.40;74.80;;;;;;5016312;28;20367;-78
2022/04/12 03:18:34;;;;;;;8.38;4.18;;;10.50;74.80;;;;;;5016282;28;20045;-79
2022/04/12 03:21:00;;;;;;;8.00;4.18;;;10.50;74.90;;;;;;5016281;28;20072;-78
2022/04/12 03:23:26;;;;;;;13.60;5.05;;;10.50;74.70;;;;;;5015768;28;20080;-77
2022/04/12 03:25:51;;;;;;;8.10;4.30;;;10.50;74.70;;;;;;5016125;28;20022;-77
2022/04/12 03:28:17;;;;;;;11.85;5.15;;;10.40;74.80;;;;;;5015608;28;20030;-78
2022/04/12 03:30:43;;;;;;;9.15;4.13;;;10.40;74.80;;;;;;5015902;28;20018;-77
2022/04/12 03:33:09;;;;;;;12.10;4.50;;;10.30;74.80;;;;;;5016422;28;20025;-78
2022/04/12 03:35:35;;;;;;;10.30;5.13;;;10.30;75.10;;;;;;5016153;28;20026;-78
2022/04/12 03:38:01;;;;;;;8.48;5.18;;;10.30;75.30;;;;;;5016491;28;20029;-78
2022/04/12 03:40:31;;;;;;;10.52;5.00;;;10.40;75.40;;;;;;5016168;28;20395;-78
2022/04/12 03:43:02;;;;;;;9.10;4.55;;;10.40;75.60;;;;;;5016420;28;20156;-77
2022/04/12 03:45:29;;;;;;;7.82;4.40;;;10.30;75.50;;;;;;5016564;28;20046;-78
2022/04/12 03:47:55;;;;;;;9.57;4.60;;;10.30;75.60;;;;;;5015916;28;20383;-78
2022/04/12 03:50:21;;;;;;;10.23;5.32;;;10.40;76.00;;;;;;5016654;28;20471;-78
2022/04/12 03:52:46;;;;;;;14.52;5.13;;;10.40;76.00;;;;;;5017182;28;20022;-78
2022/04/12 03:55:12;;;;;;;10.40;4.60;;;10.40;76.10;;;;;;5016473;28;20022;-78
2022/04/12 03:57:38;;;;;;;15.45;6.13;;;10.40;76.10;;;;;;5015455;28;20033;-78
2022/04/12 04:00:09;;;;;;;9.40;4.30;;;10.30;76.60;;;;;;5015314;28;20030;-79
2022/04/12 04:02:35;;;;;;;11.38;4.88;;;10.30;76.80;;;;;;5015350;28;20040;-78
2022/04/12 04:05:01;;;;;;;16.58;5.47;;;10.30;77.00;;;;;;5015207;28;20057;-78
2022/04/12 04:07:27;;;;;;;10.05;4.90;;;10.30;77.00;;;;;;5015003;28;20094;-78
2022/04/12 04:09:54;;;;;;;12.57;4.93;;;10.30;77.50;;;;;;5015244;28;20017;-79
2022/04/12 04:12:20;;;;;;;11.05;4.43;;;10.30;77.40;;;;;;5015535;28;20030;-80
2022/04/12 04:14:47;;;;;;;10.13;4.72;;;10.20;78.20;;;;;;5015861;28;20041;-78
2022/04/12 04:17:13;;;;;;;8.23;4.22;;;10.20;78.80;;;;;;5015041;28;20424;-77
2022/04/12 04:19:39;;;;;;;13.35;4.63;;;10.20;78.80;;;;;;5014831;28;20487;-77
2022/04/12 04:22:05;;;;;;;11.07;4.72;;;10.30;78.50;;;;;;5013617;28;20037;-77
2022/04/12 04:24:30;;;;;;;9.00;5.30;;;10.30;78.00;;;;;;4997286;28;20026;-78
2022/04/12 04:26:56;;;;;;;10.27;4.82;;;10.30;78.50;;;;;;5014924;28;20026;-78
2022/04/12 04:29:23;;;;;;;11.40;4.60;;;10.40;78.40;;;;;;5014818;28;20141;-77
2022/04/12 04:31:51;;;;;;;10.95;4.70;;;10.40;77.80;;;;;;5016185;28;20018;-78
2022/04/12 04:34:17;;;;;;;8.70;4.15;;;10.40;77.50;;;;;;5014493;28;20042;-77
2022/04/12 04:36:43;;;;;;;11.75;5.57;;;10.40;77.50;;;;;;5014504;28;20022;-76
2022/04/12 04:39:09;;;;;;;10.05;4.70;;;10.40;77.30;;;;;;5013741;28;20040;-77
2022/04/12 04:41:34;;;;;;;11.38;4.45;;;10.30;77.20;;;;;;5014538;28;20022;-78
2022/04/12 04:44:00;;;;;;;10.82;4.97;;;10.30;77.20;;;;;;5014155;28;20085;-79
2022/04/12 04:46:26;;;;;;;13.63;5.60;;;10.20;77.40;;;;;;5012996;28;20064;-78
2022/04/12 04:48:52;;;;;;;11.07;5.65;;;10.20;77.50;;;;;;5014306;28;20033;-78
2022/04/12 04:51:18;;;;;;;10.70;5.95;;;10.20;76.90;;;;;;5014195;28;20025;-78
2022/04/12 04:53:49;;;;;;;11.95;6.22;;;10.20;76.20;;;;;;5014046;28;20018;-78
2022/04/12 04:56:15;;;;;;;11.13;5.32;;;10.20;76.00;;;;;;5014097;28;20022;-79
2022/04/12 04:58:41;;;;;;;21.23;5.68;;;10.20;75.80;;;;;;5012683;28;20502;-78
2022/04/12 05:01:07;;;;;;;13.25;5.60;;;10.20;75.40;;;;;;5014028;28;20483;-78
2022/04/12 05:03:32;;;;;;;14.00;5.40;;;10.20;75.20;;;;;;5013793;28;20038;-78
2022/04/12 05:05:58;;;;;;;11.32;5.65;;;10.20;74.80;;;;;;5014199;28;20158;-79
2022/04/12 05:08:24;;;;;;;12.30;5.82;;;10.10;74.70;;;;;;5032817;28;20072;-78
2022/04/12 05:10:50;;;;;;;17.90;6.03;;;10.10;74.60;;;;;;5033901;28;20418;-80
2022/04/12 05:13:16;;;;;;;12.95;5.35;;;10.10;74.50;;;;;;5030990;28;20033;-78
2022/04/12 05:15:42;;;;;;;10.35;5.22;;;10.10;74.20;;;;;;5035316;28;20399;-80
2022/04/12 05:18:09;;;;;;;10.93;5.70;;;10.10;73.90;;;;;;5030743;28;20026;-78
2022/04/12 05:20:35;;;;;;;13.43;5.60;;;10.20;73.60;;;;;;5033895;28;20029;-81
2022/04/12 05:23:01;;;;;;;17.85;6.50;;;10.20;73.30;;;;;;5034052;28;20060;-81
2022/04/12 05:25:26;;;;;;;12.27;6.43;;;10.20;73.00;;;;;;5033715;28;20045;-82
2022/04/12 05:27:52;;;;;;;15.13;7.28;;;10.20;72.60;;;;;;5033971;28;20497;-82
2022/04/12 05:30:18;;;;;;;19.23;7.20;;;10.20;72.70;;;;;;5034001;28;20163;-81
2022/04/12 05:32:45;;;;;;;12.27;6.53;;;10.30;72.70;;;;;;5034015;28;20529;-79
2022/04/12 05:35:11;;;;;;;16.90;7.40;;;10.40;72.40;;;;;;5032377;28;20029;-81
2022/04/12 05:37:44;;;;;;;11.75;6.35;;;10.40;72.20;;;;;;5033859;28;20104;-78
2022/04/12 05:40:11;;;;;;;12.37;5.87;;;10.50;72.40;;;;;;5032463;28;20390;-78
2022/04/12 05:42:38;;;;;;;12.60;6.13;;;10.50;72.20;;;;;;5033342;28;20037;-76
2022/04/12 05:45:04;;;;;;;12.55;5.80;;;10.60;72.10;;;;;;5042044;28;20027;-81
2022/04/12 05:47:51;;;;;;;12.00;5.70;;;10.60;72.40;;;;;;5042643;28;20037;-82
2022/04/12 05:50:19;;;;;;;11.98;5.53;;;10.70;72.50;;;;;;5040943;28;20398;-82
2022/04/12 05:52:45;;;;;;;11.27;5.45;;;10.90;71.90;;;;;;5042317;28;20073;-81
2022/04/12 05:55:15;;;;;;;13.20;5.30;;;11.10;71.40;;;;;;5033392;28;20072;-79
2022/04/12 05:57:59;;;;;;;12.48;5.35;;;11.20;70.70;;;;;;5017213;28;20483;-84
2022/04/12 06:00:26;;;;;;;;;;;11.40;69.50;;;;;;5034114;28;20021;-84
2022/04/12 06:02:53;;;;;;;10.68;4.72;;;11.70;69.00;;;;;;5033929;28;19913;-85
2022/04/12 06:05:20;;;;;;;12.00;4.90;;;11.80;68.40;;;;;;5032525;28;20028;-85
2022/04/12 06:07:46;;;;;;;13.02;5.22;;;12.00;67.60;;;;;;5034297;28;20040;-84
2022/04/12 06:10:14;;;;;;;12.40;4.60;;;12.20;66.20;;;;;;5028941;28;20075;-86
2022/04/12 06:12:39;;;;;;;9.48;5.00;;;12.30;65.20;;;;;;5013938;28;20026;-83
2022/04/12 06:15:06;;;;;;;9.73;4.90;;;12.50;65.40;;;;;;5020459;28;20024;-83
2022/04/12 06:17:34;;;;;;;13.75;5.13;;;12.50;64.20;;;;;;5033032;28;20037;-82
2022/04/12 06:20:08;;;;;;;12.75;5.45;;;12.50;63.60;;;;;;5033598;28;20025;-85
2022/04/12 06:22:35;;;;;;;11.20;5.25;;;12.60;64.00;;;;;;5033958;28;20117;-84
2022/04/12 06:25:01;;;;;;;10.45;5.05;;;12.80;63.60;;;;;;5034637;28;20040;-83
2022/04/12 06:27:38;;;;;;;11.85;5.25;;;12.90;62.50;;;;;;5035233;28;20168;-84
2022/04/12 06:30:13;;;;;;;13.55;5.10;;;13.10;62.40;;;;;;5035932;28;20040;-81
2022/04/12 06:32:40;;;;;;;10.50;5.60;;;13.20;61.80;;;;;;5037047;28;20120;-83
2022/04/12 06:35:09;;;;;;;14.88;6.20;;;13.40;61.90;;;;;;5020077;28;20486;-84
2022/04/12 06:37:35;;;;;;;16.55;5.40;;;13.60;61.10;;;;;;5034884;28;20328;-84
2022/04/12 06:40:05;;;;;;;12.85;5.68;;;13.70;60.90;;;;;;5033813;28;20025;-81
2022/04/12 06:42:31;;;;;;;16.77;5.55;;;13.80;60.80;;;;;;5032842;28;20399;-83
2022/04/12 06:44:57;;;;;;;11.90;5.45;;;13.90;60.30;;;;;;5033297;28;20033;-80
2022/04/12 06:47:22;;;;;;;12.02;5.88;;;13.90;59.70;;;;;;5033358;28;20056;-80
2022/04/12 06:49:51;;;;;;;13.55;6.07;;;14.00;60.00;;;;;;5033580;28;20033;-82
2022/04/12 06:52:22;;;;;;;15.80;6.28;;;14.10;59.70;;;;;;5037851;28;20045;-83
2022/04/12 06:54:49;;;;;;;11.80;5.75;;;14.30;59.30;;;;;;5034789;28;20093;-84
2022/04/12 06:57:16;;;;;;;15.20;5.75;;;14.30;58.80;;;;;;5038905;28;20382;-79
2022/04/12 06:59:42;;;;;;;13.13;6.10;;;14.50;58.80;;;;;;5035789;28;20045;-80
2022/04/12 07:02:10;;;;;;;13.25;5.88;;;14.70;58.20;;;;;;5035042;28;20056;-83
2022/04/12 07:04:35;;;;;;;13.10;5.90;;;14.80;57.90;;;;;;5037064;28;20029;-83
2022/04/12 07:07:02;;;;;;;10.68;5.32;;;14.90;56.90;;;;;;5037015;28;20029;-84
2022/04/12 07:09:29;;;;;;;11.20;5.78;;;14.90;56.10;;;;;;5037124;28;20025;-81
2022/04/12 07:11:58;;;;;;;18.55;5.80;;;14.90;56.70;;;;;;5037430;28;20104;-83
2022/04/12 07:14:25;;;;;;;18.42;6.88;;;15.10;57.10;;;;;;5039756;28;20033;-81
2022/04/12 07:16:51;;;;;;;15.40;6.30;;;15.30;56.10;;;;;;5039707;28;20074;-81
2022/04/12 07:19:17;;;;;;;14.73;6.07;;;15.40;54.90;;;;;;5036379;28;20474;-83
2022/04/12 07:21:43;;;;;;;14.60;6.65;;;15.40;54.50;;;;;;5036295;28;20017;-86
2022/04/12 07:24:08;;;;;;;17.48;7.90;;;15.40;54.00;;;;;;5036163;28;20116;-83
2022/04/12 07:26:36;;;;;;;11.43;6.43;;;15.60;54.60;;;;;;5036383;28;20048;-82
2022/04/12 07:29:03;;;;;;;18.90;5.95;;;15.60;52.70;;;;;;5036618;28;20476;-78
2022/04/12 07:31:32;;;;;;;14.63;5.93;;;15.70;52.80;;;;;;5036530;28;20048;-81
2022/04/12 07:34:00;;;;;;;14.55;5.22;;;15.70;53.90;;;;;;5036294;28;20025;-81
2022/04/12 07:36:26;;;;;;;14.05;5.70;;;15.70;53.40;;;;;;5036767;28;20033;-80
2022/04/12 07:38:51;;;;;;;15.45;5.60;;;15.80;52.60;;;;;;5037221;28;20025;-82
2022/04/12 07:41:18;;;;;;;13.25;6.30;;;15.90;51.50;;;;;;5036507;28;20112;-83
2022/04/12 07:43:49;;;;;;;17.70;6.30;;;16.00;51.10;;;;;;5034218;28;20101;-78
2022/04/12 07:46:15;;;;;;;14.75;6.50;;;16.00;50.70;;;;;;5034375;28;20176;-83
2022/04/12 07:48:42;;;;;;;14.35;6.05;;;16.10;50.80;;;;;;5036047;28;20147;-84
2022/04/12 07:51:08;;;;;;;19.23;5.85;;;16.20;51.00;;;;;;5036411;28;20021;-84
2022/04/12 07:53:34;;;;;;;17.65;6.47;;;16.20;50.40;;;;;;5034128;28;20025;-83
2022/04/12 07:55:59;;;;;;;19.63;6.78;;;16.30;50.20;;;;;;5035427;28;20109;-82
2022/04/12 07:58:25;;;;;;;14.48;5.78;;;16.30;49.80;;;;;;5036109;28;20025;-82
2022/04/12 08:00:51;;;;;;;11.23;5.50;;;16.20;50.00;;;;;;5038509;28;20124;-81
2022/04/12 08:03:20;;;;;;;12.70;6.05;;;16.20;50.20;;;;;;5040976;28;20033;-81
2022/04/12 08:05:49;;;;;;;11.80;5.80;;;16.10;49.90;;;;;;5042381;28;20037;-81
2022/04/12 08:08:15;;;;;;;13.55;6.05;;;16.10;50.20;;;;;;5043174;28;20036;-81
2022/04/12 08:10:47;;;;;;;14.13;5.65;;;16.20;50.00;;;;;;5049016;28;20022;-81
2022/04/12 08:13:13;;;;;;;17.38;6.25;;;16.20;50.20;;;;;;5048946;28;20044;-81
2022/04/12 08:15:38;;;;;;;16.55;5.07;;;16.20;50.20;;;;;;5049705;28;20026;-80
2022/04/12 08:18:05;;;;;;;14.68;5.32;;;16.30;50.10;;;;;;5034951;28;20043;-81
2022/04/12 08:20:31;;;;;;;10.18;5.40;;;16.30;49.90;;;;;;5036648;28;20025;-82
2022/04/12 08:22:57;;;;;;;13.88;5.07;;;16.30;49.90;;;;;;5035108;28;20108;-80
2022/04/12 08:25:23;;;;;;;26.17;5.95;;;16.30;50.50;;;;;;5034982;28;20033;-81
2022/04/12 08:27:49;;;;;;;12.23;5.85;;;16.40;50.30;;;;;;5035147;28;20032;-82
2022/04/12 08:30:15;;;;;;;13.35;5.55;;;16.40;50.30;;;;;;5035334;28;20026;-81
2022/04/12 08:32:41;;;;;;;15.00;5.95;;;16.40;50.30;;;;;;5035063;28;20033;-83
2022/04/12 08:35:07;;;;;;;14.75;6.10;;;16.40;49.50;;;;;;5034748;28;20037;-82
2022/04/12 08:37:33;;;;;;;15.80;6.13;;;16.40;49.30;;;;;;5034627;28;20025;-82
2022/04/12 08:39:59;;;;;;;14.32;5.95;;;16.30;48.60;;;;;;5034900;28;20359;-82
2022/04/12 08:42:25;;;;;;;12.75;5.78;;;16.30;49.00;;;;;;5034637;28;20386;-83
2022/04/12 08:44:56;;;;;;;12.75;5.90;;;16.30;49.00;;;;;;5034511;28;20047;-81
2022/04/12 08:47:22;;;;;;;18.13;5.30;;;16.20;48.00;;;;;;5034514;28;20047;-82
2022/04/12 08:49:52;;;;;;;14.30;5.80;;;16.30;48.90;;;;;;5034409;28;20041;-83
2022/04/12 08:52:18;;;;;;;14.30;5.88;;;16.30;48.60;;;;;;5034286;28;20067;-84
2022/04/12 08:54:45;;;;;;;9.45;5.07;;;16.40;49.10;;;;;;5033964;28;20068;-83
2022/04/12 08:57:12;;;;;;;12.30;5.18;;;16.40;48.60;;;;;;5034679;28;20018;-84
2022/04/12 08:59:39;;;;;;;12.45;5.18;;;16.40;49.10;;;;;;5033297;28;20501;-82
2022/04/12 09:02:08;;;;;;;12.88;4.80;;;16.50;48.70;;;;;;5034102;28;20532;-83
2022/04/12 09:04:34;;;;;;;13.48;5.10;;;16.50;48.10;;;;;;5034027;28;20108;-82
2022/04/12 09:07:00;;;;;;;13.85;5.43;;;16.50;48.10;;;;;;5034581;28;20026;-82
2022/04/12 09:09:28;;;;;;;9.57;5.40;;;16.50;48.40;;;;;;5035046;28;20056;-83
2022/04/12 09:12:00;;;;;;;31.75;19.00;;;16.50;48.50;;;;;;5034584;28;20521;-83
2022/04/12 09:14:43;;;;;;;14.48;8.48;;;16.60;48.70;;;;;;5033918;28;20497;-82
2022/04/12 09:17:11;;;;;;;15.50;4.78;;;16.60;47.20;;;;;;5033966;28;20197;-80
2022/04/12 09:19:41;;;;;;;14.07;4.45;;;16.70;48.70;;;;;;5034090;28;20033;-81
2022/04/12 09:22:23;;;;;;;8.65;3.85;;;16.90;46.60;;;;;;5032789;28;20057;-83
2022/04/12 09:24:51;;;;;;;8.27;3.45;;;17.00;46.00;;;;;;5033565;28;20387;-83
2022/04/12 09:27:22;;;;;;;7.03;3.13;;;17.10;47.40;;;;;;5034149;28;20060;-81
2022/04/12 09:30:10;;;;;;;10.18;2.80;;;17.20;47.10;;;;;;5034519;28;20030;-82
2022/04/12 09:32:40;;;;;;;12.43;3.45;;;17.30;44.90;;;;;;5034903;28;20493;-83
2022/04/12 09:35:07;;;;;;;8.35;2.83;;;17.30;46.40;;;;;;5033514;28;20196;-81
2022/04/12 09:37:38;;;;;;;9.75;2.75;;;17.40;45.60;;;;;;5032603;28;20029;-83
2022/04/12 09:40:15;;;;;;;7.32;2.55;;;17.40;44.40;;;;;;5032633;28;20027;-83
2022/04/12 09:42:42;;;;;;;8.20;2.78;;;17.50;44.80;;;;;;5034291;28;20030;-82
2022/04/12 09:45:11;;;;;;;6.20;2.85;;;17.60;45.80;;;;;;5034374;28;20041;-82
2022/04/12 09:47:37;;;;;;;8.32;2.90;;;17.60;45.90;;;;;;5035778;28;20041;-80
2022/04/12 09:50:05;;;;;;;7.00;2.60;;;17.60;45.60;;;;;;5035122;28;20475;-84
2022/04/12 09:52:31;;;;;;;6.57;3.35;;;17.70;44.90;;;;;;5034577;28;20049;-83
2022/04/12 09:54:57;;;;;;;14.95;4.35;;;17.70;45.20;;;;;;5033576;28;20030;-83
2022/04/12 09:57:25;;;;;;;8.40;3.10;;;17.80;44.80;;;;;;5033548;28;20022;-83
2022/04/12 09:59:55;;;;;;;10.75;3.38;;;17.90;45.00;;;;;;5034256;28;20025;-81
2022/04/12 10:02:23;;;;;;;8.32;3.00;;;17.90;44.40;;;;;;5033552;28;20113;-84
2022/04/12 10:04:51;;;;;;;9.43;2.83;;;18.00;43.50;;;;;;5033232;28;20026;-84
2022/04/12 10:07:18;;;;;;;9.85;2.90;;;18.00;43.00;;;;;;5033717;28;20022;-83
2022/04/12 10:09:45;;;;;;;12.95;2.90;;;18.10;43.40;;;;;;5033476;28;20030;-84
2022/04/12 10:12:12;;;;;;;8.95;3.38;;;18.20;42.80;;;;;;5033397;28;20386;-83
2022/04/12 10:14:39;;;;;;;6.63;2.70;;;18.20;42.90;;;;;;5033542;28;20022;-81
2022/04/12 10:17:07;;;;;;;5.90;2.40;;;18.30;41.90;;;;;;5033765;28;20029;-84
2022/04/12 10:19:34;;;;;;;4.20;2.05;;;18.30;40.90;;;;;;5016450;28;20033;-82
2022/04/12 10:22:00;;;;;;;9.73;2.58;;;18.40;41.00;;;;;;5033583;28;20026;-81
2022/04/12 10:24:27;;;;;;;10.52;2.75;;;18.40;40.80;;;;;;5033620;28;20424;-84
2022/04/12 10:26:55;;;;;;;5.40;2.22;;;18.60;40.90;;;;;;5033982;28;20026;-86
2022/04/12 10:29:21;;;;;;;6.60;2.53;;;18.60;40.10;;;;;;5034446;28;20030;-82
2022/04/12 10:31:58;;;;;;;5.13;2.00;;;18.70;39.00;;;;;;5034738;28;20037;-79
2022/04/12 10:34:24;;;;;;;6.07;2.30;;;18.80;38.70;;;;;;5034200;28;20087;-82
2022/04/12 10:37:04;;;;;;;8.93;2.47;;;18.80;38.50;;;;;;5033817;28;20033;-83
2022/04/12 10:39:36;;;;;;;9.32;2.22;;;18.90;38.70;;;;;;5037139;28;20053;-85
2022/04/12 10:42:08;;;;;;;9.27;3.05;;;19.00;38.10;;;;;;5037298;28;20028;-82
2022/04/12 10:44:40;;;;;;;5.50;2.13;;;19.10;38.00;;;;;;5037910;28;20037;-82
2022/04/12 10:47:05;;;;;;;8.48;3.92;;;19.10;38.00;;;;;;5036975;28;20042;-82
2022/04/12 10:49:38;;;;;;;11.93;4.93;;;19.10;38.30;;;;;;5019625;28;20039;-80
2022/04/12 10:52:07;;;;;;;7.20;3.60;;;19.20;38.50;;;;;;5037217;28;20155;-81
2022/04/12 10:54:35;;;;;;;4.80;2.35;;;19.30;38.60;;;;;;5037028;28;20248;-84
2022/04/12 10:57:22;;;;;;;8.75;2.55;;;19.40;38.40;;;;;;5036494;28;20030;-81
2022/04/12 10:59:53;;;;;;;7.50;2.50;;;19.50;38.50;;;;;;5036676;28;20381;-82
2022/04/12 11:02:20;;;;;;;6.93;1.88;;;19.50;37.70;;;;;;5036498;28;20064;-82
2022/04/12 11:04:46;;;;;;;5.20;1.90;;;19.60;36.50;;;;;;5035455;28;20053;-83
2022/04/12 11:07:29;;;;;;;5.18;1.90;;;19.70;36.60;;;;;;5037017;28;20060;-82
2022/04/12 11:10:07;;;;;;;6.70;2.00;;;19.80;36.90;;;;;;5035879;28;20028;-84
2022/04/12 11:12:43;;;;;;;6.85;2.17;;;19.90;36.50;;;;;;5036469;28;20091;-84
2022/04/12 11:15:26;;;;;;;6.28;2.40;;;19.90;36.50;;;;;;5034879;28;20029;-84
2022/04/12 11:18:12;;;;;;;6.82;2.50;;;19.90;37.60;;;;;;5036159;28;20026;-84
2022/04/12 11:20:42;;;;;;;7.63;2.17;;;20.00;38.20;;;;;;5038059;28;20040;-83
2022/04/12 11:23:15;;;;;;;8.02;2.40;;;20.00;38.40;;;;;;5037720;28;20112;-85
2022/04/12 11:25:49;;;;;;;6.10;1.77;;;20.10;37.90;;;;;;5036406;28;20018;-83
2022/04/12 11:28:25;;;;;;;7.72;2.35;;;20.20;37.20;;;;;;5038597;28;20049;-84
2022/04/12 11:30:55;;;;;;;6.00;2.10;;;20.30;35.80;;;;;;5036591;28;20383;-85
2022/04/12 11:33:28;;;;;;;4.70;2.05;;;20.40;34.80;;;;;;5037368;28;20139;-87
2022/04/12 11:35:56;;;;;;;6.57;2.17;;;20.60;34.70;;;;;;5036747;28;20494;-83
2022/04/12 11:38:24;;;;;;;3.25;1.80;;;20.70;34.90;;;;;;5037417;28;20029;-82
2022/04/12 11:40:52;;;;;;;4.47;2.33;;;20.70;34.50;;;;;;5036968;28;20052;-84
2022/04/12 11:43:22;;;;;;;7.55;2.85;;;20.80;34.80;;;;;;5043705;28;20037;-86
2022/04/12 11:45:56;;;;;;;7.43;2.28;;;20.90;34.90;;;;;;5041596;28;20068;-80
2022/04/12 11:48:26;;;;;;;5.70;1.98;;;21.00;34.70;;;;;;5043846;28;20130;-83
2022/04/12 11:50:53;;;;;;;4.93;1.95;;;21.00;34.40;;;;;;5036087;28;20079;-85
2022/04/12 11:53:20;;;;;;;10.73;2.55;;;21.10;34.50;;;;;;5035390;28;20373;-87
2022/04/12 11:55:46;;;;;;;6.38;2.30;;;21.20;34.00;;;;;;5036859;28;20091;-84
2022/04/12 11:58:13;;;;;;;5.53;2.03;;;21.30;34.50;;;;;;5036385;28;20021;-84
2022/04/12 12:00:39;;;;;;;6.13;2.83;;;21.40;35.10;;;;;;5036208;28;20037;-83
2022/04/12 12:03:05;;;;;;;9.15;2.65;;;21.60;36.00;;;;;;5035429;28;20037;-84
2022/04/12 12:05:31;;;;;;;7.85;2.50;;;21.60;36.60;;;;;;5035693;28;20390;-83
2022/04/12 12:08:00;;;;;;;11.65;3.10;;;21.60;36.80;;;;;;5035850;28;20033;-87
2022/04/12 12:10:29;;;;;;;6.40;2.70;;;21.70;36.60;;;;;;5035430;28;20049;-84
2022/04/12 12:12:56;;;;;;;5.50;2.40;;;21.80;36.30;;;;;;5036129;28;20431;-83
2022/04/12 12:15:26;;;;;;;6.78;2.40;;;21.90;36.70;;;;;;5036806;28;20024;-84
2022/04/12 12:18:18;;;;;;;4.75;2.20;;;21.90;36.40;;;;;;5036330;28;20458;-84
2022/04/12 12:20:46;;;;;;;7.15;3.03;;;21.90;36.50;;;;;;5037252;28;20037;-84
2022/04/12 12:23:17;;;;;;;7.40;2.47;;;21.80;37.10;;;;;;5037467;28;20052;-84
2022/04/12 12:25:46;;;;;;;5.63;2.15;;;21.80;38.00;;;;;;5036753;28;20036;-84
2022/04/12 12:28:20;;;;;;;9.27;2.65;;;21.70;38.10;;;;;;5039114;28;20021;-83
2022/04/12 12:30:49;;;;;;;6.93;2.50;;;21.70;38.70;;;;;;5038789;28;20022;-83
2022/04/12 12:33:16;;;;;;;5.70;2.28;;;21.70;39.00;;;;;;5042241;28;20079;-85
2022/04/12 12:35:46;;;;;;;5.00;2.22;;;21.60;39.40;;;;;;5043538;28;20029;-82
2022/04/12 12:38:17;;;;;;;5.68;2.40;;;21.50;39.90;;;;;;5043602;28;20103;-85
2022/04/12 12:40:45;;;;;;;4.07;2.25;;;21.50;40.30;;;;;;5041018;28;20093;-86
2022/04/12 12:43:12;;;;;;;5.43;2.72;;;21.60;40.00;;;;;;5039915;28;20120;-82
2022/04/12 12:45:46;;;;;;;7.38;2.30;;;21.60;40.00;;;;;;5042694;28;20558;-83